createdAt,value
2023-05-15T00:01:28.125Z,11.87
2023-05-15T00:04:32.354Z,11.85
2023-05-15T00:07:36.177Z,11.87
2023-05-15T00:10:42.692Z,11.92
2023-05-15T00:13:47.484Z,11.83
2023-05-15T00:16:50.781Z,11.80
2023-05-15T00:19:57.645Z,11.86
2023-05-15T00:23:02.662Z,11.90
2023-05-15T00:26:05.270Z,11.89
2023-05-15T00:29:08.130Z,11.86
2023-05-15T00:32:10.717Z,11.88
2023-05-15T00:35:13.604Z,11.89
2023-05-15T00:38:16.226Z,11.85
2023-05-15T00:41:20.226Z,11.89
2023-05-15T00:44:25.464Z,11.91
2023-05-15T00:47:29.107Z,11.93
2023-05-15T00:50:32.904Z,11.94
2023-05-15T00:53:36.248Z,11.95
2023-05-15T00:56:40.397Z,11.93
2023-05-15T00:59:44.993Z,11.95
2023-05-15T01:02:47.747Z,11.94
2023-05-15T01:05:51.618Z,11.96
2023-05-15T01:08:56.964Z,11.93
2023-05-15T01:12:00.849Z,12.00
2023-05-15T01:15:03.998Z,12.01
2023-05-15T01:18:07.436Z,11.93
2023-05-15T01:21:30.010Z,11.94
2023-05-15T01:24:52.577Z,11.91
2023-05-15T01:27:58.900Z,11.93
2023-05-15T01:31:10.667Z,11.93
2023-05-15T01:34:14.793Z,11.94
2023-05-15T01:37:22.141Z,11.94
2023-05-15T01:40:26.345Z,11.96
2023-05-15T01:43:33.752Z,11.97
2023-05-15T01:46:39.703Z,11.97
2023-05-15T01:49:45.575Z,11.95
2023-05-15T01:52:54.349Z,11.94
2023-05-15T01:55:58.618Z,11.90
2023-05-15T01:59:04.509Z,11.89
2023-05-15T02:02:07.991Z,11.87
2023-05-15T02:05:12.240Z,11.88
2023-05-15T02:08:16.351Z,11.88
2023-05-15T02:11:19.270Z,11.90
2023-05-15T02:14:23.330Z,11.92
2023-05-15T02:17:26.200Z,11.85
2023-05-15T02:20:29.106Z,11.85
2023-05-15T02:23:31.630Z,11.84
2023-05-15T02:27:03.872Z,11.85
2023-05-15T02:30:14.455Z,11.88
2023-05-15T02:33:25.286Z,11.85
2023-05-15T02:36:32.475Z,11.86
2023-05-15T02:39:35.557Z,11.85
2023-05-15T02:42:39.055Z,11.82
2023-05-15T02:45:42.705Z,11.84
2023-05-15T02:48:46.344Z,11.86
2023-05-15T02:51:49.260Z,11.86
2023-05-15T02:54:51.903Z,11.89
2023-05-15T02:57:55.200Z,11.90
2023-05-15T03:00:57.930Z,11.91
2023-05-15T03:04:02.421Z,11.91
2023-05-15T03:07:05.109Z,11.92
2023-05-15T03:10:08.613Z,11.93
2023-05-15T03:13:11.271Z,11.97
2023-05-15T03:16:14.201Z,11.98
2023-05-15T03:19:17.738Z,12.02
2023-05-15T03:22:20.834Z,11.95
2023-05-15T03:25:23.643Z,12.04
2023-05-15T03:28:26.913Z,11.99
2023-05-15T03:31:29.558Z,12.02
2023-05-15T03:34:32.511Z,12.00
2023-05-15T03:37:37.521Z,11.97
2023-05-15T03:40:40.825Z,12.01
2023-05-15T03:43:43.434Z,12.03
2023-05-15T03:46:46.364Z,12.02
2023-05-15T03:49:48.920Z,12.02
2023-05-15T03:52:51.861Z,12.05
2023-05-15T03:55:54.421Z,12.08
2023-05-15T03:58:57.301Z,12.06
2023-05-15T04:02:05.099Z,12.08
2023-05-15T04:05:09.824Z,12.10
2023-05-15T04:08:12.619Z,12.10
2023-05-15T04:11:16.941Z,12.07
2023-05-15T04:14:19.561Z,12.14
2023-05-15T04:17:22.473Z,12.09
2023-05-15T04:20:25.972Z,12.13
2023-05-15T04:23:28.858Z,12.17
2023-05-15T04:26:31.673Z,12.22
2023-05-15T04:29:34.581Z,12.23
2023-05-15T04:32:38.616Z,12.22
2023-05-15T04:35:41.977Z,12.19
2023-05-15T04:38:44.582Z,12.19
2023-05-15T04:41:47.471Z,12.21
2023-05-15T04:44:50.149Z,12.24
2023-05-15T04:47:53.045Z,12.24
2023-05-15T04:50:55.682Z,12.26
2023-05-15T04:53:58.452Z,12.19
2023-05-15T04:57:01.513Z,12.23
2023-05-15T05:00:10.350Z,12.27
2023-05-15T05:03:13.063Z,12.28
2023-05-15T05:06:16.290Z,12.35
2023-05-15T05:09:20.042Z,12.38
2023-05-15T05:12:22.911Z,12.36
2023-05-15T05:15:26.832Z,12.37
2023-05-15T05:18:30.894Z,12.42
2023-05-15T05:21:33.813Z,12.45
2023-05-15T05:24:37.592Z,12.51
2023-05-15T05:27:40.302Z,12.64
2023-05-15T05:30:46.292Z,12.70
2023-05-15T05:33:49.761Z,12.72
2023-05-15T05:36:54.776Z,12.80
2023-05-15T05:39:57.373Z,12.81
2023-05-15T05:43:01.153Z,12.83
2023-05-15T05:46:03.819Z,12.90
2023-05-15T05:49:06.822Z,12.99
2023-05-15T05:52:09.537Z,13.12
2023-05-15T05:55:12.442Z,13.23
2023-05-15T05:58:25.022Z,13.30
2023-05-15T06:01:29.123Z,13.44
2023-05-15T06:04:34.168Z,13.77
2023-05-15T06:07:37.075Z,13.95
2023-05-15T06:10:40.544Z,13.95
2023-05-15T06:13:44.124Z,14.14
2023-05-15T06:16:47.095Z,14.31
2023-05-15T06:19:50.015Z,14.40
2023-05-15T06:22:53.211Z,14.58
2023-05-15T06:25:55.760Z,14.53
2023-05-15T06:28:58.643Z,14.59
2023-05-15T06:32:01.221Z,14.60
2023-05-15T06:35:04.379Z,14.61
2023-05-15T06:38:07.112Z,14.67
2023-05-15T06:41:09.849Z,14.65
2023-05-15T06:44:12.928Z,14.73
2023-05-15T06:47:16.383Z,14.58
2023-05-15T06:50:19.063Z,14.64
2023-05-15T06:53:21.938Z,14.90
2023-05-15T06:56:24.565Z,15.22
2023-05-15T06:59:27.841Z,15.30
2023-05-15T07:02:31.128Z,15.46
2023-05-15T07:05:34.452Z,15.59
2023-05-15T07:08:37.152Z,15.97
2023-05-15T07:11:42.246Z,16.11
2023-05-15T07:14:44.854Z,15.99
2023-05-15T07:17:49.816Z,16.06
2023-05-15T07:20:52.549Z,16.33
2023-05-15T07:23:55.416Z,16.51
2023-05-15T07:26:59.507Z,16.49
2023-05-15T07:30:04.245Z,16.40
2023-05-15T07:33:07.144Z,16.16
2023-05-15T07:36:10.168Z,15.93
2023-05-15T07:39:13.365Z,15.68
2023-05-15T07:42:16.261Z,15.52
2023-05-15T07:45:18.933Z,15.46
2023-05-15T07:48:21.882Z,15.52
2023-05-15T07:51:24.615Z,15.47
2023-05-15T07:54:27.823Z,15.63
2023-05-15T07:57:31.914Z,15.77
2023-05-15T08:00:35.418Z,16.01
2023-05-15T08:03:38.471Z,16.24
2023-05-15T08:06:42.773Z,16.25
2023-05-15T08:09:48.468Z,16.69
2023-05-15T08:12:51.213Z,17.07
2023-05-15T08:15:54.089Z,17.38
2023-05-15T08:19:01.546Z,17.83
2023-05-15T08:22:04.837Z,18.53
2023-05-15T08:25:08.845Z,18.58
2023-05-15T08:28:11.933Z,18.45
2023-05-15T08:31:14.460Z,18.47
2023-05-15T08:34:17.404Z,18.39
2023-05-15T08:37:20.028Z,18.32
2023-05-15T08:40:34.501Z,18.43
2023-05-15T08:43:42.223Z,18.69
2023-05-15T08:46:47.592Z,18.99
2023-05-15T08:50:04.710Z,18.80
2023-05-15T08:53:08.301Z,19.21
2023-05-15T08:56:11.028Z,19.06
2023-05-15T08:59:13.919Z,19.22
2023-05-15T09:02:18.195Z,19.37
2023-05-15T09:05:21.298Z,19.23
2023-05-15T09:08:25.066Z,19.27
2023-05-15T09:11:29.196Z,19.26
2023-05-15T09:14:32.783Z,19.20
2023-05-15T09:17:35.895Z,19.41
2023-05-15T09:20:38.636Z,19.42
2023-05-15T09:23:41.516Z,19.60
2023-05-15T09:27:01.489Z,19.95
2023-05-15T09:30:10.386Z,20.11
2023-05-15T09:33:13.124Z,20.22
2023-05-15T09:36:21.757Z,20.08
2023-05-15T09:39:24.500Z,20.10
2023-05-15T09:42:27.411Z,20.05
2023-05-15T09:45:30.625Z,20.23
2023-05-15T09:48:35.163Z,20.38
2023-05-15T09:51:37.872Z,20.38
2023-05-15T09:54:40.992Z,20.15
2023-05-15T09:57:43.560Z,19.72
2023-05-15T10:00:49.637Z,19.82
2023-05-15T10:04:03.785Z,20.17
2023-05-15T10:07:09.180Z,19.88
2023-05-15T10:10:12.385Z,19.80
2023-05-15T10:13:15.072Z,19.62
2023-05-15T10:16:21.826Z,19.69
2023-05-15T10:19:27.413Z,20.04
2023-05-15T10:22:32.309Z,20.15
2023-05-15T10:26:04.241Z,19.90
2023-05-15T10:29:09.603Z,20.14
2023-05-15T10:32:13.561Z,20.57
2023-05-15T10:35:17.735Z,20.95
2023-05-15T10:38:21.907Z,20.24
2023-05-15T10:41:26.020Z,19.84
2023-05-15T10:44:28.761Z,19.49
2023-05-15T10:47:33.311Z,19.72
2023-05-15T10:50:37.770Z,20.18
2023-05-15T10:53:41.235Z,20.14
2023-05-15T10:56:44.022Z,20.14
2023-05-15T10:59:48.709Z,20.23
2023-05-15T11:02:57.693Z,20.31
2023-05-15T11:06:09.310Z,20.36
2023-05-15T11:09:28.078Z,20.26
2023-05-15T11:12:58.006Z,21.07
2023-05-15T11:16:00.836Z,21.31
2023-05-15T11:19:04.211Z,21.86
2023-05-15T11:22:09.666Z,21.68
2023-05-15T11:25:12.649Z,21.41
2023-05-15T11:28:25.934Z,21.31
2023-05-15T11:31:31.846Z,21.21
2023-05-15T11:34:35.429Z,21.33
2023-05-15T11:37:42.495Z,21.48
2023-05-15T11:40:59.047Z,21.63
2023-05-15T11:44:02.109Z,21.34
2023-05-15T11:47:05.172Z,21.11
2023-05-15T11:50:11.162Z,20.88
2023-05-15T11:53:14.563Z,20.77
2023-05-15T11:56:22.817Z,20.68
2023-05-15T11:59:26.984Z,20.52
2023-05-15T12:02:29.813Z,20.17
2023-05-15T12:05:33.380Z,19.90
2023-05-15T12:08:42.020Z,19.67
2023-05-15T12:11:50.869Z,19.38
2023-05-15T12:14:59.360Z,19.13
2023-05-15T12:18:04.108Z,19.12
2023-05-15T12:21:06.820Z,19.38
2023-05-15T12:24:11.600Z,19.68
2023-05-15T12:27:14.876Z,20.18
2023-05-15T12:30:18.294Z,20.62
2023-05-15T12:33:21.342Z,20.78
2023-05-15T12:36:24.308Z,20.68
2023-05-15T12:39:27.346Z,20.53
2023-05-15T12:42:30.857Z,20.44
2023-05-15T12:45:35.443Z,20.52
2023-05-15T12:48:38.295Z,20.40
2023-05-15T12:51:44.545Z,20.20
2023-05-15T12:54:47.524Z,20.45
2023-05-15T12:57:50.365Z,20.54
2023-05-15T13:00:53.365Z,20.73
2023-05-15T13:03:56.737Z,20.89
2023-05-15T13:06:59.875Z,20.72
2023-05-15T13:10:07.011Z,20.58
2023-05-15T13:13:09.953Z,20.43
2023-05-15T13:16:26.974Z,20.32
2023-05-15T13:19:29.979Z,20.00
2023-05-15T13:22:32.618Z,19.64
2023-05-15T13:25:36.071Z,19.52
2023-05-15T13:28:38.661Z,19.47
2023-05-15T13:31:41.716Z,19.61
2023-05-15T13:34:45.194Z,20.03
2023-05-15T13:37:48.212Z,20.18
2023-05-15T13:40:50.751Z,20.21
2023-05-15T13:43:53.839Z,20.08
2023-05-15T13:46:56.492Z,20.12
2023-05-15T13:49:59.842Z,20.09
2023-05-15T13:53:02.472Z,20.07
2023-05-15T13:56:05.715Z,20.04
2023-05-15T13:59:08.478Z,20.00
2023-05-15T14:02:11.495Z,19.70
2023-05-15T14:05:15.804Z,19.58
2023-05-15T14:08:19.110Z,19.39
2023-05-15T14:11:23.003Z,19.42
2023-05-15T14:14:26.163Z,19.42
2023-05-15T14:17:29.172Z,19.42
2023-05-15T14:20:31.790Z,19.40
2023-05-15T14:23:34.585Z,19.30
2023-05-15T14:26:37.281Z,19.31
2023-05-15T14:29:40.216Z,19.43
2023-05-15T14:32:42.928Z,19.42
2023-05-15T14:35:45.920Z,19.42
2023-05-15T14:38:49.157Z,19.51
2023-05-15T14:41:52.064Z,19.48
2023-05-15T14:44:54.650Z,19.21
2023-05-15T14:47:57.568Z,19.05
2023-05-15T14:51:01.080Z,18.80
2023-05-15T14:54:05.146Z,18.66
2023-05-15T14:57:08.054Z,18.57
2023-05-15T15:00:13.358Z,18.61
2023-05-15T15:03:16.458Z,18.38
2023-05-15T15:06:19.484Z,18.28
2023-05-15T15:09:22.088Z,18.25
2023-05-15T15:12:24.995Z,18.28
2023-05-15T15:15:28.306Z,18.29
2023-05-15T15:18:31.252Z,18.42
2023-05-15T15:21:34.617Z,18.65
2023-05-15T15:24:37.502Z,19.35
2023-05-15T15:27:40.881Z,20.53
2023-05-15T15:30:43.868Z,21.45
2023-05-15T15:33:46.512Z,22.54
2023-05-15T15:36:49.354Z,22.26
2023-05-15T15:39:52.325Z,22.86
2023-05-15T15:42:55.382Z,22.88
2023-05-15T15:45:58.014Z,22.89
2023-05-15T15:49:01.101Z,22.11
2023-05-15T15:52:03.724Z,22.30
2023-05-15T15:55:07.182Z,22.20
2023-05-15T15:58:09.972Z,22.14
2023-05-15T16:01:13.110Z,22.95
2023-05-15T16:04:16.505Z,23.32
2023-05-15T16:07:19.405Z,22.65
2023-05-15T16:10:22.541Z,21.97
2023-05-15T16:13:25.254Z,21.36
2023-05-15T16:16:28.088Z,20.87
2023-05-15T16:19:31.247Z,20.46
2023-05-15T16:22:34.117Z,20.12
2023-05-15T16:25:36.956Z,19.78
2023-05-15T16:28:39.805Z,19.41
2023-05-15T16:31:42.444Z,19.21
2023-05-15T16:34:45.618Z,19.15
2023-05-15T16:37:48.216Z,18.97
2023-05-15T16:40:51.076Z,18.85
2023-05-15T16:43:53.988Z,18.80
2023-05-15T16:46:56.901Z,18.69
2023-05-15T16:49:59.470Z,18.58
2023-05-15T16:53:02.788Z,18.62
2023-05-15T16:56:05.724Z,18.37
2023-05-15T16:59:08.553Z,18.27
2023-05-15T17:02:11.322Z,18.02
2023-05-15T17:05:14.684Z,17.84
2023-05-15T17:08:17.245Z,17.76
2023-05-15T17:11:22.376Z,17.67
2023-05-15T17:14:26.078Z,17.55
2023-05-15T17:17:29.045Z,17.46
2023-05-15T17:20:31.588Z,17.41
2023-05-15T17:23:34.706Z,17.45
2023-05-15T17:26:37.192Z,17.30
2023-05-15T17:29:40.359Z,17.18
2023-05-15T17:32:43.023Z,17.11
2023-05-15T17:35:46.147Z,17.01
2023-05-15T17:38:48.682Z,16.93
2023-05-15T17:41:51.586Z,16.80
2023-05-15T17:44:54.563Z,16.67
2023-05-15T17:48:03.622Z,16.64
2023-05-15T17:51:06.423Z,16.53
2023-05-15T17:54:09.333Z,16.44
2023-05-15T17:57:12.078Z,16.34
2023-05-15T18:00:15.667Z,16.21
2023-05-15T18:03:18.322Z,16.10
2023-05-15T18:06:21.529Z,15.98
2023-05-15T18:09:24.916Z,15.91
2023-05-15T18:12:28.169Z,15.78
2023-05-15T18:15:35.264Z,15.71
2023-05-15T18:18:38.471Z,15.61
2023-05-15T18:21:41.242Z,15.57
2023-05-15T18:24:44.636Z,15.52
2023-05-15T18:27:47.548Z,15.43
2023-05-15T18:30:51.110Z,15.35
2023-05-15T18:33:54.151Z,15.27
2023-05-15T18:36:57.400Z,15.20
2023-05-15T18:40:00.304Z,15.19
2023-05-15T18:43:03.507Z,15.11
2023-05-15T18:46:06.733Z,15.04
2023-05-15T18:49:10.086Z,14.97
2023-05-15T18:52:13.232Z,14.91
2023-05-15T18:55:16.641Z,14.82
2023-05-15T18:58:19.661Z,14.74
2023-05-15T19:01:23.079Z,14.65
2023-05-15T19:04:27.133Z,14.56
2023-05-15T19:07:30.755Z,14.51
2023-05-15T19:10:33.700Z,14.47
2023-05-15T19:13:39.128Z,14.44
2023-05-15T19:16:42.424Z,14.40
2023-05-15T19:19:46.936Z,14.38
2023-05-15T19:22:50.029Z,14.37
2023-05-15T19:25:53.291Z,14.35
2023-05-15T19:28:56.255Z,14.30
2023-05-15T19:32:00.228Z,14.34
2023-05-15T19:35:03.509Z,14.31
2023-05-15T19:38:07.139Z,14.25
2023-05-15T19:41:10.289Z,14.22
2023-05-15T19:44:13.709Z,14.18
2023-05-15T19:47:16.585Z,14.20
2023-05-15T19:50:19.625Z,14.20
2023-05-15T19:53:23.015Z,14.20
2023-05-15T19:56:26.339Z,14.20
2023-05-15T19:59:29.790Z,14.21
2023-05-15T20:02:33.225Z,14.19
2023-05-15T20:05:41.208Z,14.17
2023-05-15T20:08:43.942Z,14.14
2023-05-15T20:11:47.087Z,14.11
2023-05-15T20:14:50.192Z,14.14
2023-05-15T20:17:53.703Z,14.16
2023-05-15T20:20:56.518Z,14.18
2023-05-15T20:23:59.680Z,14.21
2023-05-15T20:27:04.075Z,14.18
2023-05-15T20:30:07.507Z,14.28
2023-05-15T20:33:10.070Z,14.21
2023-05-15T20:36:13.678Z,14.19
2023-05-15T20:39:17.338Z,14.15
2023-05-15T20:42:21.057Z,14.11
2023-05-15T20:45:23.858Z,14.07
2023-05-15T20:48:26.754Z,14.02
2023-05-15T20:51:29.333Z,13.97
2023-05-15T20:54:32.375Z,13.98
2023-05-15T20:57:34.918Z,13.98
2023-05-15T21:00:37.827Z,13.97
2023-05-15T21:03:40.591Z,13.97
2023-05-15T21:06:43.435Z,14.00
2023-05-15T21:09:46.067Z,14.00
2023-05-15T21:12:49.200Z,14.02
2023-05-15T21:15:51.783Z,13.99
2023-05-15T21:18:54.725Z,13.95
2023-05-15T21:21:57.349Z,13.90
2023-05-15T21:25:01.736Z,13.87
2023-05-15T21:28:04.874Z,13.85
2023-05-15T21:31:08.800Z,13.84
2023-05-15T21:34:11.639Z,13.82
2023-05-15T21:37:14.571Z,13.80
2023-05-15T21:40:17.142Z,13.78
2023-05-15T21:43:20.271Z,13.82
2023-05-15T21:46:22.966Z,13.80
2023-05-15T21:49:25.895Z,13.77
2023-05-15T21:52:28.556Z,13.78
2023-05-15T21:55:31.496Z,13.78
2023-05-15T21:58:34.070Z,13.75
2023-05-15T22:01:37.044Z,13.74
2023-05-15T22:04:39.864Z,13.76
2023-05-15T22:07:42.504Z,13.75
2023-05-15T22:10:45.627Z,13.76
2023-05-15T22:13:48.163Z,13.78
2023-05-15T22:16:51.171Z,13.80
2023-05-15T22:19:53.864Z,13.76
2023-05-15T22:22:56.741Z,13.72
2023-05-15T22:25:59.359Z,13.69
2023-05-15T22:29:02.345Z,13.70
2023-05-15T22:32:05.481Z,13.72
2023-05-15T22:35:09.668Z,13.75
2023-05-15T22:38:12.436Z,13.74
2023-05-15T22:41:15.426Z,13.75
2023-05-15T22:44:17.998Z,13.75
2023-05-15T22:47:21.079Z,13.81
2023-05-15T22:50:23.598Z,13.83
2023-05-15T22:53:26.564Z,13.86
2023-05-15T22:56:29.275Z,13.92
2023-05-15T22:59:32.131Z,13.88
2023-05-15T23:02:37.075Z,13.84
2023-05-15T23:05:40.582Z,13.87
2023-05-15T23:08:43.293Z,13.95
2023-05-15T23:11:46.146Z,13.88
2023-05-15T23:14:48.933Z,13.81
2023-05-15T23:17:51.820Z,13.77
2023-05-15T23:20:54.559Z,13.75
2023-05-15T23:23:57.379Z,13.74
2023-05-15T23:27:00.405Z,13.71
2023-05-15T23:30:03.617Z,13.63
2023-05-15T23:33:06.335Z,13.61
2023-05-15T23:36:09.410Z,13.60
2023-05-15T23:39:11.998Z,13.56
2023-05-15T23:42:15.057Z,13.54
2023-05-15T23:45:17.650Z,13.53
2023-05-15T23:48:20.593Z,13.48
2023-05-15T23:51:23.192Z,13.49
2023-05-15T23:54:26.112Z,13.47
2023-05-15T23:57:28.637Z,13.46
